sensor_id;sensor_type;location;lat;lon;timestamp;P1;durP1;ratioP1;P2;durP2;ratioP2
32236;SDS011;18726;44.732;10.550;2024-01-07T00:02:25;304.63;;;173.75;;
32236;SDS011;18726;44.732;10.550;2024-01-07T00:05:29;59.03;;;42.90;;
32236;SDS011;18726;44.732;10.550;2024-01-07T00:08:32;37.17;;;33.15;;
32236;SDS011;18726;44.732;10.550;2024-01-07T00:11:36;29.10;;;25.77;;
32236;SDS011;18726;44.732;10.550;2024-01-07T00:14:39;30.90;;;27.55;;
32236;SDS011;18726;44.732;10.550;2024-01-07T00:17:43;27.92;;;23.40;;
32236;SDS011;18726;44.732;10.550;2024-01-07T00:20:47;25.10;;;20.13;;
32236;SDS011;18726;44.732;10.550;2024-01-07T00:23:51;25.92;;;21.65;;
32236;SDS011;18726;44.732;10.550;2024-01-07T00:26:55;22.38;;;18.52;;
32236;SDS011;18726;44.732;10.550;2024-01-07T00:29:59;22.45;;;20.00;;
32236;SDS011;18726;44.732;10.550;2024-01-07T00:33:03;24.60;;;21.98;;
32236;SDS011;18726;44.732;10.550;2024-01-07T00:36:07;22.48;;;20.15;;
32236;SDS011;18726;44.732;10.550;2024-01-07T00:39:12;21.50;;;19.45;;
32236;SDS011;18726;44.732;10.550;2024-01-07T00:42:15;19.73;;;16.83;;
32236;SDS011;18726;44.732;10.550;2024-01-07T00:45:19;20.00;;;17.85;;
32236;SDS011;18726;44.732;10.550;2024-01-07T00:48:24;26.85;;;18.85;;
32236;SDS011;18726;44.732;10.550;2024-01-07T00:51:28;19.85;;;16.42;;
32236;SDS011;18726;44.732;10.550;2024-01-07T00:54:32;16.65;;;14.73;;
32236;SDS011;18726;44.732;10.550;2024-01-07T00:57:36;19.10;;;16.08;;
32236;SDS011;18726;44.732;10.550;2024-01-07T01:00:40;19.73;;;17.73;;
32236;SDS011;18726;44.732;10.550;2024-01-07T01:03:45;20.20;;;18.10;;
32236;SDS011;18726;44.732;10.550;2024-01-07T01:06:49;18.60;;;16.65;;
32236;SDS011;18726;44.732;10.550;2024-01-07T01:09:52;15.48;;;14.00;;
32236;SDS011;18726;44.732;10.550;2024-01-07T01:12:56;20.95;;;18.77;;
32236;SDS011;18726;44.732;10.550;2024-01-07T01:16:00;19.55;;;17.50;;
32236;SDS011;18726;44.732;10.550;2024-01-07T01:19:03;15.75;;;14.18;;
32236;SDS011;18726;44.732;10.550;2024-01-07T01:22:07;17.30;;;13.73;;
32236;SDS011;18726;44.732;10.550;2024-01-07T01:25:10;21.00;;;18.92;;
32236;SDS011;18726;44.732;10.550;2024-01-07T01:28:14;20.45;;;18.00;;
32236;SDS011;18726;44.732;10.550;2024-01-07T01:31:18;21.58;;;19.27;;
32236;SDS011;18726;44.732;10.550;2024-01-07T01:34:22;18.85;;;16.73;;
32236;SDS011;18726;44.732;10.550;2024-01-07T01:37:27;17.25;;;15.45;;
32236;SDS011;18726;44.732;10.550;2024-01-07T01:40:31;19.52;;;17.50;;
32236;SDS011;18726;44.732;10.550;2024-01-07T01:43:35;17.15;;;15.05;;
32236;SDS011;18726;44.732;10.550;2024-01-07T01:46:39;18.23;;;16.00;;
32236;SDS011;18726;44.732;10.550;2024-01-07T01:49:44;18.20;;;16.25;;
32236;SDS011;18726;44.732;10.550;2024-01-07T01:52:49;19.48;;;15.38;;
32236;SDS011;18726;44.732;10.550;2024-01-07T01:55:54;21.05;;;16.20;;
32236;SDS011;18726;44.732;10.550;2024-01-07T01:59:00;17.27;;;15.57;;
32236;SDS011;18726;44.732;10.550;2024-01-07T02:02:04;21.35;;;14.95;;
32236;SDS011;18726;44.732;10.550;2024-01-07T02:05:08;15.10;;;13.50;;
32236;SDS011;18726;44.732;10.550;2024-01-07T02:08:11;16.95;;;15.18;;
32236;SDS011;18726;44.732;10.550;2024-01-07T02:11:19;14.98;;;13.32;;
32236;SDS011;18726;44.732;10.550;2024-01-07T02:14:24;16.08;;;14.05;;
32236;SDS011;18726;44.732;10.550;2024-01-07T02:17:29;13.35;;;12.15;;
32236;SDS011;18726;44.732;10.550;2024-01-07T02:20:33;14.02;;;12.63;;
32236;SDS011;18726;44.732;10.550;2024-01-07T02:23:36;14.20;;;12.43;;
32236;SDS011;18726;44.732;10.550;2024-01-07T02:26:40;13.15;;;11.82;;
32236;SDS011;18726;44.732;10.550;2024-01-07T02:29:43;11.88;;;10.63;;
32236;SDS011;18726;44.732;10.550;2024-01-07T02:32:50;13.68;;;10.85;;
32236;SDS011;18726;44.732;10.550;2024-01-07T02:35:54;12.88;;;11.57;;
32236;SDS011;18726;44.732;10.550;2024-01-07T02:38:57;13.70;;;12.07;;
32236;SDS011;18726;44.732;10.550;2024-01-07T02:42:01;13.38;;;11.25;;
32236;SDS011;18726;44.732;10.550;2024-01-07T02:45:05;13.10;;;11.77;;
32236;SDS011;18726;44.732;10.550;2024-01-07T02:48:10;13.15;;;11.75;;
32236;SDS011;18726;44.732;10.550;2024-01-07T02:51:14;12.20;;;11.00;;
32236;SDS011;18726;44.732;10.550;2024-01-07T02:54:17;14.10;;;12.68;;
32236;SDS011;18726;44.732;10.550;2024-01-07T02:57:20;22.13;;;11.20;;
32236;SDS011;18726;44.732;10.550;2024-01-07T03:00:24;13.55;;;12.25;;
32236;SDS011;18726;44.732;10.550;2024-01-07T03:03:28;12.25;;;11.05;;
32236;SDS011;18726;44.732;10.550;2024-01-07T03:06:31;15.27;;;12.13;;
32236;SDS011;18726;44.732;10.550;2024-01-07T03:09:36;14.93;;;13.45;;
32236;SDS011;18726;44.732;10.550;2024-01-07T03:12:39;13.40;;;12.20;;
32236;SDS011;18726;44.732;10.550;2024-01-07T03:15:43;16.65;;;14.95;;
32236;SDS011;18726;44.732;10.550;2024-01-07T03:18:47;16.55;;;14.98;;
32236;SDS011;18726;44.732;10.550;2024-01-07T03:21:50;16.27;;;14.68;;
32236;SDS011;18726;44.732;10.550;2024-01-07T03:24:54;16.30;;;14.77;;
32236;SDS011;18726;44.732;10.550;2024-01-07T03:27:58;17.88;;;15.98;;
32236;SDS011;18726;44.732;10.550;2024-01-07T03:31:05;13.48;;;12.18;;
32236;SDS011;18726;44.732;10.550;2024-01-07T03:34:13;18.13;;;15.27;;
32236;SDS011;18726;44.732;10.550;2024-01-07T03:37:17;16.52;;;14.88;;
32236;SDS011;18726;44.732;10.550;2024-01-07T03:40:20;15.98;;;14.38;;
32236;SDS011;18726;44.732;10.550;2024-01-07T03:43:24;17.48;;;15.77;;
32236;SDS011;18726;44.732;10.550;2024-01-07T03:46:28;18.67;;;16.63;;
32236;SDS011;18726;44.732;10.550;2024-01-07T03:49:32;16.83;;;15.13;;
32236;SDS011;18726;44.732;10.550;2024-01-07T03:52:35;16.38;;;14.93;;
32236;SDS011;18726;44.732;10.550;2024-01-07T03:55:39;17.85;;;16.10;;
32236;SDS011;18726;44.732;10.550;2024-01-07T03:58:43;16.77;;;14.98;;
32236;SDS011;18726;44.732;10.550;2024-01-07T04:01:46;17.83;;;16.02;;
32236;SDS011;18726;44.732;10.550;2024-01-07T04:04:50;16.92;;;15.32;;
32236;SDS011;18726;44.732;10.550;2024-01-07T04:07:53;17.75;;;16.00;;
32236;SDS011;18726;44.732;10.550;2024-01-07T04:10:57;20.00;;;18.00;;
32236;SDS011;18726;44.732;10.550;2024-01-07T04:14:01;20.23;;;18.08;;
32236;SDS011;18726;44.732;10.550;2024-01-07T04:17:04;22.52;;;18.88;;
32236;SDS011;18726;44.732;10.550;2024-01-07T04:20:12;19.25;;;17.45;;
32236;SDS011;18726;44.732;10.550;2024-01-07T04:23:16;19.85;;;17.75;;
32236;SDS011;18726;44.732;10.550;2024-01-07T04:26:20;15.98;;;14.45;;
32236;SDS011;18726;44.732;10.550;2024-01-07T04:29:23;19.35;;;17.35;;
32236;SDS011;18726;44.732;10.550;2024-01-07T04:32:27;16.23;;;14.68;;
32236;SDS011;18726;44.732;10.550;2024-01-07T04:35:31;16.75;;;15.18;;
32236;SDS011;18726;44.732;10.550;2024-01-07T04:38:35;18.10;;;16.30;;
32236;SDS011;18726;44.732;10.550;2024-01-07T04:41:39;18.88;;;16.92;;
32236;SDS011;18726;44.732;10.550;2024-01-07T04:44:43;16.88;;;15.38;;
32236;SDS011;18726;44.732;10.550;2024-01-07T04:47:46;15.27;;;13.98;;
32236;SDS011;18726;44.732;10.550;2024-01-07T04:50:50;16.25;;;14.63;;
32236;SDS011;18726;44.732;10.550;2024-01-07T04:53:53;17.60;;;15.90;;
32236;SDS011;18726;44.732;10.550;2024-01-07T04:56:58;13.15;;;11.95;;
32236;SDS011;18726;44.732;10.550;2024-01-07T05:00:02;15.40;;;13.90;;
32236;SDS011;18726;44.732;10.550;2024-01-07T05:03:06;14.50;;;13.15;;
32236;SDS011;18726;44.732;10.550;2024-01-07T05:06:10;17.88;;;13.77;;
32236;SDS011;18726;44.732;10.550;2024-01-07T05:09:14;14.50;;;13.02;;
32236;SDS011;18726;44.732;10.550;2024-01-07T05:12:17;12.40;;;11.25;;
32236;SDS011;18726;44.732;10.550;2024-01-07T05:15:21;13.77;;;12.55;;
32236;SDS011;18726;44.732;10.550;2024-01-07T05:18:25;14.05;;;12.65;;
32236;SDS011;18726;44.732;10.550;2024-01-07T05:21:29;12.50;;;11.35;;
32236;SDS011;18726;44.732;10.550;2024-01-07T05:24:33;12.68;;;11.48;;
32236;SDS011;18726;44.732;10.550;2024-01-07T05:27:36;12.45;;;11.35;;
32236;SDS011;18726;44.732;10.550;2024-01-07T05:30:40;11.15;;;10.15;;
32236;SDS011;18726;44.732;10.550;2024-01-07T05:33:45;12.88;;;10.32;;
32236;SDS011;18726;44.732;10.550;2024-01-07T05:36:49;10.93;;;9.93;;
32236;SDS011;18726;44.732;10.550;2024-01-07T05:39:52;11.27;;;10.27;;
32236;SDS011;18726;44.732;10.550;2024-01-07T05:42:56;9.55;;;8.65;;
32236;SDS011;18726;44.732;10.550;2024-01-07T05:46:00;7.93;;;7.13;;
32236;SDS011;18726;44.732;10.550;2024-01-07T05:49:04;7.85;;;7.15;;
32236;SDS011;18726;44.732;10.550;2024-01-07T05:52:08;8.20;;;7.40;;
32236;SDS011;18726;44.732;10.550;2024-01-07T05:55:11;7.90;;;7.20;;
32236;SDS011;18726;44.732;10.550;2024-01-07T05:58:16;7.22;;;6.60;;
32236;SDS011;18726;44.732;10.550;2024-01-07T06:01:19;6.65;;;6.05;;
32236;SDS011;18726;44.732;10.550;2024-01-07T06:04:23;6.15;;;5.65;;
32236;SDS011;18726;44.732;10.550;2024-01-07T06:07:27;5.47;;;5.07;;
32236;SDS011;18726;44.732;10.550;2024-01-07T06:10:31;4.82;;;4.43;;
32236;SDS011;18726;44.732;10.550;2024-01-07T06:13:34;5.03;;;4.32;;
32236;SDS011;18726;44.732;10.550;2024-01-07T06:16:38;5.00;;;4.60;;
32236;SDS011;18726;44.732;10.550;2024-01-07T06:19:41;4.32;;;4.03;;
32236;SDS011;18726;44.732;10.550;2024-01-07T06:22:45;4.57;;;4.18;;
32236;SDS011;18726;44.732;10.550;2024-01-07T06:25:48;6.03;;;5.53;;
32236;SDS011;18726;44.732;10.550;2024-01-07T06:28:51;6.53;;;5.93;;
32236;SDS011;18726;44.732;10.550;2024-01-07T06:31:55;7.15;;;6.45;;
32236;SDS011;18726;44.732;10.550;2024-01-07T06:34:59;7.40;;;6.70;;
32236;SDS011;18726;44.732;10.550;2024-01-07T06:38:03;7.95;;;7.15;;
32236;SDS011;18726;44.732;10.550;2024-01-07T06:41:09;8.88;;;8.00;;
32236;SDS011;18726;44.732;10.550;2024-01-07T06:44:13;8.48;;;7.68;;
32236;SDS011;18726;44.732;10.550;2024-01-07T06:47:17;10.32;;;9.32;;
32236;SDS011;18726;44.732;10.550;2024-01-07T06:50:20;9.82;;;8.90;;
32236;SDS011;18726;44.732;10.550;2024-01-07T06:53:24;10.02;;;9.15;;
32236;SDS011;18726;44.732;10.550;2024-01-07T06:56:28;11.73;;;10.63;;
32236;SDS011;18726;44.732;10.550;2024-01-07T06:59:35;9.95;;;9.02;;
32236;SDS011;18726;44.732;10.550;2024-01-07T07:02:38;12.50;;;11.25;;
32236;SDS011;18726;44.732;10.550;2024-01-07T07:05:42;12.02;;;10.82;;
32236;SDS011;18726;44.732;10.550;2024-01-07T07:08:46;12.95;;;11.63;;
32236;SDS011;18726;44.732;10.550;2024-01-07T07:11:49;12.23;;;11.02;;
32236;SDS011;18726;44.732;10.550;2024-01-07T07:14:53;13.00;;;11.70;;
32236;SDS011;18726;44.732;10.550;2024-01-07T07:17:57;13.75;;;12.23;;
32236;SDS011;18726;44.732;10.550;2024-01-07T07:21:01;12.98;;;11.68;;
32236;SDS011;18726;44.732;10.550;2024-01-07T07:24:04;13.07;;;11.73;;
32236;SDS011;18726;44.732;10.550;2024-01-07T07:27:08;14.13;;;12.02;;
32236;SDS011;18726;44.732;10.550;2024-01-07T07:30:12;13.52;;;12.23;;
32236;SDS011;18726;44.732;10.550;2024-01-07T07:33:16;12.48;;;11.27;;
32236;SDS011;18726;44.732;10.550;2024-01-07T07:36:20;14.48;;;13.23;;
32236;SDS011;18726;44.732;10.550;2024-01-07T07:39:23;11.10;;;10.10;;
32236;SDS011;18726;44.732;10.550;2024-01-07T07:42:28;11.73;;;10.60;;
32236;SDS011;18726;44.732;10.550;2024-01-07T07:45:32;13.20;;;11.55;;
32236;SDS011;18726;44.732;10.550;2024-01-07T07:48:35;14.35;;;12.68;;
32236;SDS011;18726;44.732;10.550;2024-01-07T07:51:39;13.10;;;11.90;;
32236;SDS011;18726;44.732;10.550;2024-01-07T07:54:43;13.77;;;12.27;;
32236;SDS011;18726;44.732;10.550;2024-01-07T07:57:47;12.10;;;11.00;;
32236;SDS011;18726;44.732;10.550;2024-01-07T08:00:50;14.13;;;11.45;;
32236;SDS011;18726;44.732;10.550;2024-01-07T08:03:54;13.05;;;11.80;;
32236;SDS011;18726;44.732;10.550;2024-01-07T08:06:58;13.07;;;11.90;;
32236;SDS011;18726;44.732;10.550;2024-01-07T08:10:04;15.30;;;13.80;;
32236;SDS011;18726;44.732;10.550;2024-01-07T08:13:09;13.85;;;12.55;;
32236;SDS011;18726;44.732;10.550;2024-01-07T08:16:13;15.75;;;12.48;;
32236;SDS011;18726;44.732;10.550;2024-01-07T08:19:16;13.75;;;12.45;;
32236;SDS011;18726;44.732;10.550;2024-01-07T08:22:20;15.90;;;14.30;;
32236;SDS011;18726;44.732;10.550;2024-01-07T08:25:24;14.93;;;11.88;;
32236;SDS011;18726;44.732;10.550;2024-01-07T08:28:27;14.77;;;13.35;;
32236;SDS011;18726;44.732;10.550;2024-01-07T08:31:31;14.07;;;12.77;;
32236;SDS011;18726;44.732;10.550;2024-01-07T08:34:35;15.85;;;13.57;;
32236;SDS011;18726;44.732;10.550;2024-01-07T08:37:39;16.58;;;14.13;;
32236;SDS011;18726;44.732;10.550;2024-01-07T08:40:43;15.23;;;12.27;;
32236;SDS011;18726;44.732;10.550;2024-01-07T08:43:48;16.58;;;14.27;;
32236;SDS011;18726;44.732;10.550;2024-01-07T08:46:52;15.82;;;14.18;;
32236;SDS011;18726;44.732;10.550;2024-01-07T08:49:56;13.82;;;12.55;;
32236;SDS011;18726;44.732;10.550;2024-01-07T08:53:00;13.38;;;12.02;;
32236;SDS011;18726;44.732;10.550;2024-01-07T08:56:12;12.70;;;11.50;;
32236;SDS011;18726;44.732;10.550;2024-01-07T08:59:16;12.55;;;11.43;;
32236;SDS011;18726;44.732;10.550;2024-01-07T09:02:20;11.85;;;10.75;;
32236;SDS011;18726;44.732;10.550;2024-01-07T09:05:23;12.75;;;11.65;;
32236;SDS011;18726;44.732;10.550;2024-01-07T09:08:29;12.98;;;11.68;;
32236;SDS011;18726;44.732;10.550;2024-01-07T09:11:34;11.15;;;9.93;;
32236;SDS011;18726;44.732;10.550;2024-01-07T09:14:39;14.82;;;13.43;;
32236;SDS011;18726;44.732;10.550;2024-01-07T09:17:43;36.20;;;31.77;;
32236;SDS011;18726;44.732;10.550;2024-01-07T09:20:47;36.70;;;28.45;;
32236;SDS011;18726;44.732;10.550;2024-01-07T09:23:51;160.95;;;95.25;;
32236;SDS011;18726;44.732;10.550;2024-01-07T09:26:57;92.93;;;64.55;;
32236;SDS011;18726;44.732;10.550;2024-01-07T09:30:01;26.77;;;22.15;;
32236;SDS011;18726;44.732;10.550;2024-01-07T09:33:06;14.93;;;13.43;;
32236;SDS011;18726;44.732;10.550;2024-01-07T09:36:10;14.48;;;13.13;;
32236;SDS011;18726;44.732;10.550;2024-01-07T09:39:14;14.15;;;12.82;;
32236;SDS011;18726;44.732;10.550;2024-01-07T09:42:18;14.95;;;13.23;;
32236;SDS011;18726;44.732;10.550;2024-01-07T09:45:22;13.50;;;12.25;;
32236;SDS011;18726;44.732;10.550;2024-01-07T09:48:27;13.20;;;12.00;;
32236;SDS011;18726;44.732;10.550;2024-01-07T09:51:31;14.73;;;12.90;;
32236;SDS011;18726;44.732;10.550;2024-01-07T09:54:39;14.05;;;12.75;;
32236;SDS011;18726;44.732;10.550;2024-01-07T09:57:44;12.38;;;11.18;;
32236;SDS011;18726;44.732;10.550;2024-01-07T10:00:48;12.75;;;11.48;;
32236;SDS011;18726;44.732;10.550;2024-01-07T10:03:53;12.50;;;11.35;;
32236;SDS011;18726;44.732;10.550;2024-01-07T10:06:57;11.57;;;10.43;;
32236;SDS011;18726;44.732;10.550;2024-01-07T10:10:16;15.10;;;13.20;;
32236;SDS011;18726;44.732;10.550;2024-01-07T10:13:21;12.38;;;11.20;;
32236;SDS011;18726;44.732;10.550;2024-01-07T10:16:28;11.65;;;10.55;;
32236;SDS011;18726;44.732;10.550;2024-01-07T10:19:32;14.68;;;13.18;;
32236;SDS011;18726;44.732;10.550;2024-01-07T10:22:39;17.30;;;15.65;;
32236;SDS011;18726;44.732;10.550;2024-01-07T10:25:43;14.95;;;13.65;;
32236;SDS011;18726;44.732;10.550;2024-01-07T10:28:50;14.48;;;13.18;;
32236;SDS011;18726;44.732;10.550;2024-01-07T10:31:58;13.90;;;11.38;;
32236;SDS011;18726;44.732;10.550;2024-01-07T10:35:03;13.20;;;11.90;;
32236;SDS011;18726;44.732;10.550;2024-01-07T10:38:11;12.70;;;11.50;;
32236;SDS011;18726;44.732;10.550;2024-01-07T10:41:19;12.48;;;11.38;;
32236;SDS011;18726;44.732;10.550;2024-01-07T10:44:29;12.05;;;10.85;;
32236;SDS011;18726;44.732;10.550;2024-01-07T10:47:36;15.93;;;11.00;;
32236;SDS011;18726;44.732;10.550;2024-01-07T10:50:47;10.68;;;9.65;;
32236;SDS011;18726;44.732;10.550;2024-01-07T10:53:55;13.18;;;11.30;;
32236;SDS011;18726;44.732;10.550;2024-01-07T10:57:09;12.38;;;11.18;;
32236;SDS011;18726;44.732;10.550;2024-01-07T11:00:27;14.50;;;11.27;;
32236;SDS011;18726;44.732;10.550;2024-01-07T11:03:40;14.00;;;12.27;;
32236;SDS011;18726;44.732;10.550;2024-01-07T11:10:31;14.45;;;12.90;;
32236;SDS011;18726;44.732;10.550;2024-01-07T11:13:43;14.38;;;12.88;;
32236;SDS011;18726;44.732;10.550;2024-01-07T11:16:47;13.38;;;12.05;;
32236;SDS011;18726;44.732;10.550;2024-01-07T11:19:51;14.43;;;13.02;;
32236;SDS011;18726;44.732;10.550;2024-01-07T11:26:29;14.57;;;13.07;;
32236;SDS011;18726;44.732;10.550;2024-01-07T11:29:33;17.20;;;13.93;;
32236;SDS011;18726;44.732;10.550;2024-01-07T11:32:38;14.10;;;12.70;;
32236;SDS011;18726;44.732;10.550;2024-01-07T11:36:02;19.30;;;12.55;;
32236;SDS011;18726;44.732;10.550;2024-01-07T11:39:07;13.60;;;12.23;;
32236;SDS011;18726;44.732;10.550;2024-01-07T11:42:12;18.05;;;12.60;;
32236;SDS011;18726;44.732;10.550;2024-01-07T11:45:16;14.45;;;12.95;;
32236;SDS011;18726;44.732;10.550;2024-01-07T11:48:20;14.95;;;11.27;;
32236;SDS011;18726;44.732;10.550;2024-01-07T11:51:30;14.60;;;13.15;;
32236;SDS011;18726;44.732;10.550;2024-01-07T11:54:35;13.82;;;12.43;;
32236;SDS011;18726;44.732;10.550;2024-01-07T11:57:39;10.45;;;9.45;;
32236;SDS011;18726;44.732;10.550;2024-01-07T12:00:45;11.15;;;10.15;;
32236;SDS011;18726;44.732;10.550;2024-01-07T12:03:49;11.02;;;9.90;;
32236;SDS011;18726;44.732;10.550;2024-01-07T12:06:53;10.40;;;9.32;;
32236;SDS011;18726;44.732;10.550;2024-01-07T12:10:00;9.35;;;8.52;;
32236;SDS011;18726;44.732;10.550;2024-01-07T12:13:06;10.10;;;9.20;;
32236;SDS011;18726;44.732;10.550;2024-01-07T12:16:11;9.70;;;8.80;;
32236;SDS011;18726;44.732;10.550;2024-01-07T12:19:18;10.07;;;9.15;;
32236;SDS011;18726;44.732;10.550;2024-01-07T12:22:30;13.07;;;8.57;;
32236;SDS011;18726;44.732;10.550;2024-01-07T12:25:36;9.63;;;8.63;;
32236;SDS011;18726;44.732;10.550;2024-01-07T12:28:45;10.77;;;8.00;;
32236;SDS011;18726;44.732;10.550;2024-01-07T12:32:06;11.80;;;9.27;;
32236;SDS011;18726;44.732;10.550;2024-01-07T12:38:25;12.00;;;9.50;;
32236;SDS011;18726;44.732;10.550;2024-01-07T12:41:30;14.40;;;10.25;;
32236;SDS011;18726;44.732;10.550;2024-01-07T12:44:37;13.40;;;11.18;;
32236;SDS011;18726;44.732;10.550;2024-01-07T12:47:44;13.82;;;11.25;;
32236;SDS011;18726;44.732;10.550;2024-01-07T12:50:53;14.57;;;11.75;;
32236;SDS011;18726;44.732;10.550;2024-01-07T12:53:59;13.45;;;11.38;;
32236;SDS011;18726;44.732;10.550;2024-01-07T12:57:06;16.25;;;11.88;;
32236;SDS011;18726;44.732;10.550;2024-01-07T13:00:10;36.28;;;27.42;;
32236;SDS011;18726;44.732;10.550;2024-01-07T13:03:15;42.08;;;31.92;;
32236;SDS011;18726;44.732;10.550;2024-01-07T13:06:22;49.42;;;35.10;;
32236;SDS011;18726;44.732;10.550;2024-01-07T13:09:26;25.75;;;20.27;;
32236;SDS011;18726;44.732;10.550;2024-01-07T13:12:29;23.10;;;19.90;;
32236;SDS011;18726;44.732;10.550;2024-01-07T13:15:33;26.55;;;18.10;;
32236;SDS011;18726;44.732;10.550;2024-01-07T13:18:37;20.73;;;17.95;;
32236;SDS011;18726;44.732;10.550;2024-01-07T13:21:42;22.25;;;19.08;;
32236;SDS011;18726;44.732;10.550;2024-01-07T13:24:45;18.95;;;15.13;;
32236;SDS011;18726;44.732;10.550;2024-01-07T13:27:49;26.35;;;22.05;;
32236;SDS011;18726;44.732;10.550;2024-01-07T13:30:52;19.02;;;16.60;;
32236;SDS011;18726;44.732;10.550;2024-01-07T13:33:56;20.27;;;17.70;;
32236;SDS011;18726;44.732;10.550;2024-01-07T13:37:00;21.88;;;18.15;;
32236;SDS011;18726;44.732;10.550;2024-01-07T13:40:04;24.77;;;18.13;;
32236;SDS011;18726;44.732;10.550;2024-01-07T13:43:08;21.45;;;19.15;;
32236;SDS011;18726;44.732;10.550;2024-01-07T13:46:12;21.90;;;19.63;;
32236;SDS011;18726;44.732;10.550;2024-01-07T13:49:41;21.95;;;18.58;;
32236;SDS011;18726;44.732;10.550;2024-01-07T13:52:47;24.98;;;20.48;;
32236;SDS011;18726;44.732;10.550;2024-01-07T13:56:00;21.08;;;14.95;;
32236;SDS011;18726;44.732;10.550;2024-01-07T13:59:07;21.02;;;16.05;;
32236;SDS011;18726;44.732;10.550;2024-01-07T14:02:11;20.65;;;17.65;;
32236;SDS011;18726;44.732;10.550;2024-01-07T14:05:16;16.83;;;15.05;;
32236;SDS011;18726;44.732;10.550;2024-01-07T14:08:22;23.13;;;18.35;;
32236;SDS011;18726;44.732;10.550;2024-01-07T14:11:26;32.25;;;18.60;;
32236;SDS011;18726;44.732;10.550;2024-01-07T14:14:31;21.55;;;17.15;;
32236;SDS011;18726;44.732;10.550;2024-01-07T14:17:34;18.20;;;16.35;;
32236;SDS011;18726;44.732;10.550;2024-01-07T14:20:38;18.20;;;14.77;;
32236;SDS011;18726;44.732;10.550;2024-01-07T14:23:41;17.42;;;14.88;;
32236;SDS011;18726;44.732;10.550;2024-01-07T14:26:45;27.95;;;24.48;;
32236;SDS011;18726;44.732;10.550;2024-01-07T14:29:49;27.70;;;20.88;;
32236;SDS011;18726;44.732;10.550;2024-01-07T14:32:52;16.65;;;14.98;;
32236;SDS011;18726;44.732;10.550;2024-01-07T14:35:56;19.33;;;14.85;;
32236;SDS011;18726;44.732;10.550;2024-01-07T14:39:00;16.83;;;13.23;;
32236;SDS011;18726;44.732;10.550;2024-01-07T14:42:06;18.67;;;15.27;;
32236;SDS011;18726;44.732;10.550;2024-01-07T14:45:10;19.73;;;17.30;;
32236;SDS011;18726;44.732;10.550;2024-01-07T14:48:14;18.15;;;16.45;;
32236;SDS011;18726;44.732;10.550;2024-01-07T14:51:18;13.68;;;12.20;;
32236;SDS011;18726;44.732;10.550;2024-01-07T14:54:23;14.40;;;11.85;;
32236;SDS011;18726;44.732;10.550;2024-01-07T14:57:26;13.02;;;11.82;;
32236;SDS011;18726;44.732;10.550;2024-01-07T15:00:33;14.50;;;13.10;;
32236;SDS011;18726;44.732;10.550;2024-01-07T15:03:37;12.95;;;11.65;;
32236;SDS011;18726;44.732;10.550;2024-01-07T15:06:44;17.80;;;15.68;;
32236;SDS011;18726;44.732;10.550;2024-01-07T15:09:49;18.77;;;16.92;;
32236;SDS011;18726;44.732;10.550;2024-01-07T15:12:54;14.52;;;13.07;;
32236;SDS011;18726;44.732;10.550;2024-01-07T15:15:57;15.73;;;14.20;;
32236;SDS011;18726;44.732;10.550;2024-01-07T15:19:01;13.18;;;11.98;;
32236;SDS011;18726;44.732;10.550;2024-01-07T15:22:06;14.48;;;12.98;;
32236;SDS011;18726;44.732;10.550;2024-01-07T15:25:10;15.18;;;13.73;;
32236;SDS011;18726;44.732;10.550;2024-01-07T15:28:14;13.85;;;12.32;;
32236;SDS011;18726;44.732;10.550;2024-01-07T15:31:19;15.95;;;14.35;;
32236;SDS011;18726;44.732;10.550;2024-01-07T15:34:22;16.75;;;15.10;;
32236;SDS011;18726;44.732;10.550;2024-01-07T15:37:26;16.33;;;14.73;;
32236;SDS011;18726;44.732;10.550;2024-01-07T15:40:30;14.35;;;12.90;;
32236;SDS011;18726;44.732;10.550;2024-01-07T15:43:34;13.88;;;12.48;;
32236;SDS011;18726;44.732;10.550;2024-01-07T15:46:40;14.05;;;12.55;;
32236;SDS011;18726;44.732;10.550;2024-01-07T15:49:44;12.63;;;11.30;;
32236;SDS011;18726;44.732;10.550;2024-01-07T15:52:48;14.18;;;12.77;;
32236;SDS011;18726;44.732;10.550;2024-01-07T15:55:54;12.40;;;11.18;;
32236;SDS011;18726;44.732;10.550;2024-01-07T15:59:01;14.27;;;12.93;;
32236;SDS011;18726;44.732;10.550;2024-01-07T16:02:14;15.00;;;12.10;;
32236;SDS011;18726;44.732;10.550;2024-01-07T16:05:23;14.65;;;13.15;;
32236;SDS011;18726;44.732;10.550;2024-01-07T16:08:30;63.72;;;52.65;;
32236;SDS011;18726;44.732;10.550;2024-01-07T16:11:37;70.43;;;45.20;;
32236;SDS011;18726;44.732;10.550;2024-01-07T16:14:45;29.30;;;22.20;;
32236;SDS011;18726;44.732;10.550;2024-01-07T16:17:53;17.25;;;15.45;;
32236;SDS011;18726;44.732;10.550;2024-01-07T16:20:57;14.88;;;13.48;;
32236;SDS011;18726;44.732;10.550;2024-01-07T16:24:14;14.95;;;13.52;;
32236;SDS011;18726;44.732;10.550;2024-01-07T16:27:26;19.10;;;17.30;;
32236;SDS011;18726;44.732;10.550;2024-01-07T16:30:32;16.80;;;15.10;;
32236;SDS011;18726;44.732;10.550;2024-01-07T16:33:48;17.52;;;15.82;;
32236;SDS011;18726;44.732;10.550;2024-01-07T16:37:03;15.93;;;14.27;;
32236;SDS011;18726;44.732;10.550;2024-01-07T16:40:11;16.30;;;14.35;;
32236;SDS011;18726;44.732;10.550;2024-01-07T16:43:16;15.00;;;13.60;;
32236;SDS011;18726;44.732;10.550;2024-01-07T16:46:20;15.73;;;13.68;;
32236;SDS011;18726;44.732;10.550;2024-01-07T16:49:24;15.38;;;13.90;;
32236;SDS011;18726;44.732;10.550;2024-01-07T16:52:29;15.30;;;13.80;;
32236;SDS011;18726;44.732;10.550;2024-01-07T16:55:33;15.52;;;14.00;;
32236;SDS011;18726;44.732;10.550;2024-01-07T16:58:37;13.60;;;12.23;;
32236;SDS011;18726;44.732;10.550;2024-01-07T17:01:42;15.63;;;13.95;;
32236;SDS011;18726;44.732;10.550;2024-01-07T17:04:46;13.20;;;11.95;;
32236;SDS011;18726;44.732;10.550;2024-01-07T17:07:50;15.88;;;13.30;;
32236;SDS011;18726;44.732;10.550;2024-01-07T17:10:54;13.40;;;12.13;;
32236;SDS011;18726;44.732;10.550;2024-01-07T17:14:00;12.95;;;11.65;;
32236;SDS011;18726;44.732;10.550;2024-01-07T17:17:04;13.98;;;12.57;;
32236;SDS011;18726;44.732;10.550;2024-01-07T17:20:08;12.82;;;11.63;;
32236;SDS011;18726;44.732;10.550;2024-01-07T17:23:12;13.73;;;12.40;;
32236;SDS011;18726;44.732;10.550;2024-01-07T17:26:19;13.13;;;11.93;;
32236;SDS011;18726;44.732;10.550;2024-01-07T17:29:24;13.82;;;12.40;;
32236;SDS011;18726;44.732;10.550;2024-01-07T17:32:28;28.58;;;22.00;;
32236;SDS011;18726;44.732;10.550;2024-01-07T17:35:37;43.90;;;34.53;;
32236;SDS011;18726;44.732;10.550;2024-01-07T17:38:42;23.63;;;21.13;;
32236;SDS011;18726;44.732;10.550;2024-01-07T17:41:46;25.40;;;20.20;;
32236;SDS011;18726;44.732;10.550;2024-01-07T17:44:49;25.65;;;21.52;;
32236;SDS011;18726;44.732;10.550;2024-01-07T17:47:53;19.95;;;17.67;;
32236;SDS011;18726;44.732;10.550;2024-01-07T17:51:00;17.40;;;15.55;;
32236;SDS011;18726;44.732;10.550;2024-01-07T17:54:13;19.45;;;17.38;;
32236;SDS011;18726;44.732;10.550;2024-01-07T17:57:26;26.75;;;23.00;;
32236;SDS011;18726;44.732;10.550;2024-01-07T18:00:33;25.05;;;21.67;;